UAL579 MMSD-KIAH
Flight info
| Callsign | UAL579 |
|---|---|
| Flight time | N/A |
| Altitude | 37000 |
| Route | UKUXA1A UKUXA DCT NAPDA UJ10 TRC UJ20 NLD DCT LRD DCT NEHOW HTOWN3 |
| Aircraft | A320/M-SDE2E3FGHIRWXY/LB1 |
Departure
| Time | 2026-04-30 18:40 |
|---|---|
| Airport | Los Cabos International Airport (MMSD) |
Arrival
| Time | N/A |
|---|---|
| Airport | George Bush Intercontinental Airport (KIAH) |
| Time | Latitude | Longitude | Altitude | Speed | Heading |
|---|---|---|---|---|---|
| 2026-04-30 18:07 | 23.15714 | -109.71774 | 362 ft | 0 kts | 85° |
| 2026-04-30 18:23 | 23.15713 | -109.71784 | 362 ft | 2 kts | 85° |
| 2026-04-30 18:23 | 23.15712 | -109.71800 | 363 ft | 2 kts | 85° |
| 2026-04-30 18:23 | 23.15713 | -109.71819 | 364 ft | 2 kts | 114° |
| 2026-04-30 18:24 | 23.15734 | -109.71838 | 366 ft | 0 kts | 171° |
| 2026-04-30 18:24 | 23.15741 | -109.71839 | 366 ft | 0 kts | 175° |
| 2026-04-30 18:24 | 23.15741 | -109.71838 | 366 ft | 0 kts | 175° |
| 2026-04-30 18:26 | 23.15739 | -109.71838 | 366 ft | 0 kts | 177° |
| 2026-04-30 18:26 | 23.15723 | -109.71841 | 366 ft | 3 kts | 206° |
| 2026-04-30 18:26 | 23.15714 | -109.71860 | 367 ft | 2 kts | 265° |
| 2026-04-30 18:27 | 23.15709 | -109.71903 | 369 ft | 5 kts | 253° |
| 2026-04-30 18:27 | 23.15665 | -109.71917 | 369 ft | 11 kts | 174° |
| 2026-04-30 18:28 | 23.15430 | -109.71892 | 366 ft | 20 kts | 174° |
| 2026-04-30 18:28 | 23.15286 | -109.71877 | 363 ft | 19 kts | 174° |
| 2026-04-30 18:28 | 23.15009 | -109.71848 | 359 ft | 20 kts | 174° |
| 2026-04-30 18:29 | 23.14855 | -109.71833 | 352 ft | 23 kts | 174° |
| 2026-04-30 18:29 | 23.14386 | -109.71784 | 335 ft | 21 kts | 175° |
| 2026-04-30 18:30 | 23.14059 | -109.71751 | 321 ft | 24 kts | 174° |
| 2026-04-30 18:30 | 23.13904 | -109.71742 | 318 ft | 4 kts | 201° |
| 2026-04-30 18:31 | 23.13888 | -109.71767 | 318 ft | 3 kts | 262° |
| 2026-04-30 18:31 | 23.13887 | -109.71779 | 319 ft | 0 kts | 265° |
| 2026-04-30 18:39 | 23.13884 | -109.71819 | 321 ft | 8 kts | 266° |
| 2026-04-30 18:39 | 23.13877 | -109.71898 | 326 ft | 7 kts | 264° |
| 2026-04-30 18:39 | 23.13902 | -109.71928 | 328 ft | 8 kts | 348° |
| 2026-04-30 18:39 | 23.14121 | -109.71954 | 338 ft | 61 kts | 354° |
| 2026-04-30 18:40 | 23.14783 | -109.72032 | 361 ft | 119 kts | 354° |
| 2026-04-30 18:40 | 23.15787 | -109.72144 | 412 ft | 161 kts | 354° |
| 2026-04-30 18:40 | 23.16952 | -109.72267 | 899 ft | 162 kts | 354° |
| 2026-04-30 18:40 | 23.18063 | -109.72395 | 1432 ft | 158 kts | 354° |
| 2026-04-30 18:41 | 23.19184 | -109.72525 | 1732 ft | 163 kts | 354° |
| 2026-04-30 18:41 | 23.20346 | -109.72659 | 2001 ft | 172 kts | 354° |
| 2026-04-30 18:41 | 23.21584 | -109.72797 | 2303 ft | 181 kts | 356° |
| 2026-04-30 18:41 | 23.22860 | -109.72530 | 2534 ft | 196 kts | 29° |
| 2026-04-30 18:42 | 23.23931 | -109.71489 | 2765 ft | 215 kts | 43° |
| 2026-04-30 18:42 | 23.26244 | -109.68956 | 3335 ft | 252 kts | 43° |
| 2026-04-30 18:42 | 23.27476 | -109.67518 | 3724 ft | 267 kts | 54° |
| 2026-04-30 18:45 | 23.28070 | -109.45348 | 10200 ft | 320 kts | 90° |
| 2026-04-30 18:45 | 23.28123 | -109.42868 | 10594 ft | 332 kts | 90° |
| 2026-04-30 18:45 | 23.28177 | -109.40345 | 11028 ft | 341 kts | 90° |
| 2026-04-30 18:46 | 23.28231 | -109.37752 | 11620 ft | 344 kts | 90° |
| 2026-04-30 18:46 | 23.28283 | -109.35149 | 12218 ft | 345 kts | 90° |
| 2026-04-30 18:46 | 23.28335 | -109.32555 | 12766 ft | 349 kts | 91° |
| 2026-04-30 18:46 | 23.28500 | -109.29911 | 13318 ft | 353 kts | 84° |
| 2026-04-30 18:47 | 23.28984 | -109.27309 | 13883 ft | 356 kts | 76° |
| 2026-04-30 18:47 | 23.29715 | -109.24728 | 14388 ft | 360 kts | 73° |
| 2026-04-30 18:47 | 23.30510 | -109.22143 | 14888 ft | 363 kts | 73° |
| 2026-04-30 18:47 | 23.31319 | -109.19524 | 15405 ft | 366 kts | 73° |
| 2026-04-30 18:48 | 23.32124 | -109.16894 | 15902 ft | 368 kts | 74° |
| 2026-04-30 18:48 | 23.32926 | -109.14246 | 16391 ft | 370 kts | 74° |
| 2026-04-30 18:48 | 23.33715 | -109.11621 | 16869 ft | 372 kts | 75° |
| 2026-04-30 18:48 | 23.34524 | -109.08916 | 17312 ft | 375 kts | 75° |
| 2026-04-30 18:49 | 23.35333 | -109.06203 | 17779 ft | 378 kts | 75° |
| 2026-04-30 18:49 | 23.36136 | -109.03501 | 18210 ft | 381 kts | 74° |
| 2026-04-30 18:49 | 23.36956 | -109.00743 | 18645 ft | 384 kts | 74° |
| 2026-04-30 18:49 | 23.37775 | -108.97988 | 19085 ft | 386 kts | 74° |
| 2026-04-30 18:50 | 23.38609 | -108.95184 | 19507 ft | 389 kts | 74° |
| 2026-04-30 18:50 | 23.39443 | -108.92378 | 19914 ft | 393 kts | 74° |
| 2026-04-30 18:50 | 23.40289 | -108.89539 | 20311 ft | 396 kts | 73° |
| 2026-04-30 18:50 | 23.41235 | -108.86731 | 20693 ft | 400 kts | 69° |
| 2026-04-30 18:51 | 23.42368 | -108.83981 | 21095 ft | 403 kts | 64° |
| 2026-04-30 18:51 | 23.43664 | -108.81258 | 21495 ft | 406 kts | 63° |
| 2026-04-30 18:51 | 23.45007 | -108.78516 | 21889 ft | 408 kts | 62° |
| 2026-04-30 18:51 | 23.46333 | -108.75817 | 22276 ft | 410 kts | 62° |
| 2026-04-30 18:52 | 23.47674 | -108.73078 | 22660 ft | 413 kts | 62° |
| 2026-04-30 18:52 | 23.49032 | -108.70293 | 23015 ft | 416 kts | 62° |
| 2026-04-30 18:52 | 23.50388 | -108.67508 | 23362 ft | 419 kts | 62° |
| 2026-04-30 18:52 | 23.51751 | -108.64703 | 23709 ft | 422 kts | 62° |
| 2026-04-30 18:53 | 23.53129 | -108.61859 | 24040 ft | 426 kts | 63° |
| 2026-04-30 18:53 | 23.54519 | -108.58988 | 24402 ft | 428 kts | 62° |
| 2026-04-30 18:53 | 23.55908 | -108.56113 | 24753 ft | 430 kts | 62° |
| 2026-04-30 18:53 | 23.57321 | -108.53190 | 25091 ft | 433 kts | 63° |
| 2026-04-30 18:54 | 23.58729 | -108.50275 | 25432 ft | 436 kts | 63° |
| 2026-04-30 18:54 | 23.60178 | -108.47268 | 25780 ft | 438 kts | 62° |
| 2026-04-30 18:54 | 23.61608 | -108.44304 | 26094 ft | 442 kts | 62° |
| 2026-04-30 18:54 | 23.63047 | -108.41319 | 26401 ft | 445 kts | 63° |
| 2026-04-30 18:55 | 23.64511 | -108.38278 | 26720 ft | 448 kts | 63° |
| 2026-04-30 18:55 | 23.67483 | -108.32102 | 27348 ft | 454 kts | 63° |
| 2026-04-30 18:55 | 23.68990 | -108.28966 | 27653 ft | 457 kts | 63° |
| 2026-04-30 18:56 | 23.72041 | -108.22613 | 28249 ft | 463 kts | 63° |
| 2026-04-30 18:56 | 23.73605 | -108.19352 | 28543 ft | 466 kts | 63° |
| 2026-04-30 18:56 | 23.75168 | -108.16095 | 28827 ft | 469 kts | 63° |
| 2026-04-30 18:57 | 23.78292 | -108.09570 | 29432 ft | 474 kts | 63° |
| 2026-04-30 18:57 | 23.79826 | -108.06358 | 29737 ft | 476 kts | 63° |
| 2026-04-30 18:57 | 23.81373 | -108.03122 | 30049 ft | 477 kts | 62° |
| 2026-04-30 18:58 | 23.84426 | -107.96727 | 30719 ft | 479 kts | 62° |
| 2026-04-30 18:58 | 23.85964 | -107.93504 | 30998 ft | 481 kts | 62° |
| 2026-04-30 18:58 | 23.87510 | -107.90262 | 31290 ft | 483 kts | 62° |
| 2026-04-30 18:59 | 23.90613 | -107.83753 | 31885 ft | 485 kts | 62° |
| 2026-04-30 19:00 | 23.95218 | -107.74069 | 33087 ft | 479 kts | 61° |
| 2026-04-30 19:00 | 23.96745 | -107.70856 | 33446 ft | 478 kts | 61° |
| 2026-04-30 19:00 | 23.99815 | -107.64385 | 34010 ft | 481 kts | 61° |
| 2026-04-30 19:01 | 24.02890 | -107.57898 | 34564 ft | 482 kts | 61° |
| 2026-04-30 19:01 | 24.04419 | -107.54665 | 34808 ft | 484 kts | 61° |
| 2026-04-30 19:02 | 24.07505 | -107.48138 | 34816 ft | 485 kts | 61° |
| 2026-04-30 19:03 | 24.13697 | -107.35020 | 34812 ft | 485 kts | 60° |
| 2026-04-30 19:04 | 24.19854 | -107.21932 | 34821 ft | 485 kts | 61° |
| 2026-04-30 19:05 | 24.25891 | -107.09063 | 34835 ft | 485 kts | 61° |
| 2026-04-30 19:06 | 24.31980 | -106.96047 | 34843 ft | 483 kts | 61° |
| 2026-04-30 19:06 | 24.36562 | -106.86231 | 34867 ft | 484 kts | 61° |
| 2026-04-30 19:07 | 24.41156 | -106.76369 | 34904 ft | 485 kts | 61° |
| 2026-04-30 19:08 | 24.47272 | -106.63207 | 34984 ft | 485 kts | 61° |
| 2026-04-30 19:09 | 24.51837 | -106.53351 | 35054 ft | 485 kts | 61° |
| 2026-04-30 19:09 | 24.54895 | -106.46741 | 35078 ft | 484 kts | 61° |
| 2026-04-30 19:10 | 24.60971 | -106.33584 | 35230 ft | 485 kts | 62° |
| 2026-04-30 19:11 | 24.65527 | -106.23686 | 35343 ft | 484 kts | 62° |
| 2026-04-30 19:12 | 24.68542 | -106.17125 | 35368 ft | 484 kts | 61° |
| 2026-04-30 19:12 | 24.71573 | -106.10522 | 35360 ft | 483 kts | 61° |
| 2026-04-30 19:13 | 24.77610 | -105.97344 | 35372 ft | 484 kts | 62° |
| 2026-04-30 19:14 | 24.80643 | -105.90709 | 35409 ft | 484 kts | 61° |
| 2026-04-30 19:14 | 24.83651 | -105.84117 | 35423 ft | 484 kts | 62° |
| 2026-04-30 19:15 | 24.86656 | -105.77518 | 35449 ft | 484 kts | 61° |
| 2026-04-30 19:15 | 24.91176 | -105.67581 | 35458 ft | 484 kts | 61° |
| 2026-04-30 19:16 | 24.94194 | -105.60938 | 35449 ft | 484 kts | 61° |
| 2026-04-30 19:17 | 24.98695 | -105.51005 | 35424 ft | 483 kts | 61° |
| 2026-04-30 19:17 | 25.03191 | -105.41066 | 35389 ft | 483 kts | 61° |
| 2026-04-30 19:18 | 25.05832 | -105.35215 | 35382 ft | 483 kts | 61° |